sensor_id;sensor_type;location;lat;lon;timestamp;P1;durP1;ratioP1;P2;durP2;ratioP2
73779;SDS011;62093;37.614;15.072;2022-10-31T00:02:14;6.35;;;3.90;;
73779;SDS011;62093;37.614;15.072;2022-10-31T00:04:41;6.10;;;3.97;;
73779;SDS011;62093;37.614;15.072;2022-10-31T00:07:06;5.88;;;3.85;;
73779;SDS011;62093;37.614;15.072;2022-10-31T00:09:32;6.38;;;3.90;;
73779;SDS011;62093;37.614;15.072;2022-10-31T00:11:59;6.30;;;4.07;;
73779;SDS011;62093;37.614;15.072;2022-10-31T00:14:24;6.32;;;4.18;;
73779;SDS011;62093;37.614;15.072;2022-10-31T00:16:50;6.53;;;3.87;;
73779;SDS011;62093;37.614;15.072;2022-10-31T00:19:16;5.90;;;4.15;;
73779;SDS011;62093;37.614;15.072;2022-10-31T00:21:42;6.47;;;4.03;;
73779;SDS011;62093;37.614;15.072;2022-10-31T00:24:08;7.17;;;4.37;;
73779;SDS011;62093;37.614;15.072;2022-10-31T00:26:36;5.68;;;3.47;;
73779;SDS011;62093;37.614;15.072;2022-10-31T00:29:02;6.13;;;3.88;;
73779;SDS011;62093;37.614;15.072;2022-10-31T00:31:28;6.57;;;3.88;;
73779;SDS011;62093;37.614;15.072;2022-10-31T00:33:55;5.82;;;4.15;;
73779;SDS011;62093;37.614;15.072;2022-10-31T00:36:25;6.47;;;3.60;;
73779;SDS011;62093;37.614;15.072;2022-10-31T00:38:52;5.70;;;3.78;;
73779;SDS011;62093;37.614;15.072;2022-10-31T00:41:21;6.13;;;3.70;;
73779;SDS011;62093;37.614;15.072;2022-10-31T00:43:47;5.78;;;3.63;;
73779;SDS011;62093;37.614;15.072;2022-10-31T00:46:13;6.05;;;3.60;;
73779;SDS011;62093;37.614;15.072;2022-10-31T00:48:40;6.10;;;3.53;;
73779;SDS011;62093;37.614;15.072;2022-10-31T00:51:07;6.68;;;3.55;;
73779;SDS011;62093;37.614;15.072;2022-10-31T00:53:33;6.57;;;3.67;;
73779;SDS011;62093;37.614;15.072;2022-10-31T00:56:00;5.50;;;3.70;;
73779;SDS011;62093;37.614;15.072;2022-10-31T00:58:26;5.55;;;3.53;;
73779;SDS011;62093;37.614;15.072;2022-10-31T01:00:53;6.97;;;3.87;;
73779;SDS011;62093;37.614;15.072;2022-10-31T01:03:26;5.70;;;3.80;;
73779;SDS011;62093;37.614;15.072;2022-10-31T01:05:58;6.25;;;3.80;;
73779;SDS011;62093;37.614;15.072;2022-10-31T01:08:31;5.70;;;3.63;;
73779;SDS011;62093;37.614;15.072;2022-10-31T01:11:02;6.43;;;3.90;;
73779;SDS011;62093;37.614;15.072;2022-10-31T01:13:29;5.83;;;3.73;;
73779;SDS011;62093;37.614;15.072;2022-10-31T01:15:56;5.78;;;3.38;;
73779;SDS011;62093;37.614;15.072;2022-10-31T01:18:22;5.75;;;3.58;;
73779;SDS011;62093;37.614;15.072;2022-10-31T01:21:02;5.72;;;3.40;;
73779;SDS011;62093;37.614;15.072;2022-10-31T01:23:33;5.43;;;3.25;;
73779;SDS011;62093;37.614;15.072;2022-10-31T01:26:10;6.03;;;3.37;;
73779;SDS011;62093;37.614;15.072;2022-10-31T01:28:48;5.47;;;3.22;;
73779;SDS011;62093;37.614;15.072;2022-10-31T01:31:27;5.63;;;3.72;;
73779;SDS011;62093;37.614;15.072;2022-10-31T01:33:56;5.05;;;3.20;;
73779;SDS011;62093;37.614;15.072;2022-10-31T01:36:24;6.07;;;3.33;;
73779;SDS011;62093;37.614;15.072;2022-10-31T01:38:55;6.23;;;3.63;;
73779;SDS011;62093;37.614;15.072;2022-10-31T01:41:24;6.13;;;3.85;;
73779;SDS011;62093;37.614;15.072;2022-10-31T01:43:59;6.00;;;3.70;;
73779;SDS011;62093;37.614;15.072;2022-10-31T01:46:52;6.05;;;3.60;;
73779;SDS011;62093;37.614;15.072;2022-10-31T01:49:34;5.75;;;3.65;;
73779;SDS011;62093;37.614;15.072;2022-10-31T01:52:19;6.07;;;3.50;;
73779;SDS011;62093;37.614;15.072;2022-10-31T01:54:51;5.70;;;3.28;;
73779;SDS011;62093;37.614;15.072;2022-10-31T01:57:23;5.97;;;4.00;;
73779;SDS011;62093;37.614;15.072;2022-10-31T01:59:51;5.70;;;3.10;;
73779;SDS011;62093;37.614;15.072;2022-10-31T02:02:21;5.85;;;3.42;;
73779;SDS011;62093;37.614;15.072;2022-10-31T02:04:48;6.10;;;3.33;;
73779;SDS011;62093;37.614;15.072;2022-10-31T02:07:27;6.38;;;3.28;;
73779;SDS011;62093;37.614;15.072;2022-10-31T02:10:00;6.25;;;3.75;;
73779;SDS011;62093;37.614;15.072;2022-10-31T02:12:30;7.13;;;4.53;;
73779;SDS011;62093;37.614;15.072;2022-10-31T02:14:59;7.78;;;5.22;;
73779;SDS011;62093;37.614;15.072;2022-10-31T02:17:26;6.27;;;3.90;;
73779;SDS011;62093;37.614;15.072;2022-10-31T02:22:26;6.85;;;3.80;;
73779;SDS011;62093;37.614;15.072;2022-10-31T02:25:09;6.25;;;4.30;;
73779;SDS011;62093;37.614;15.072;2022-10-31T02:28:01;7.38;;;4.70;;
73779;SDS011;62093;37.614;15.072;2022-10-31T02:31:07;7.27;;;4.07;;
73779;SDS011;62093;37.614;15.072;2022-10-31T02:33:55;6.15;;;3.60;;
73779;SDS011;62093;37.614;15.072;2022-10-31T02:39:31;6.28;;;3.80;;
73779;SDS011;62093;37.614;15.072;2022-10-31T02:42:45;6.05;;;3.05;;
73779;SDS011;62093;37.614;15.072;2022-10-31T02:48:18;6.38;;;3.63;;
73779;SDS011;62093;37.614;15.072;2022-10-31T02:50:51;5.75;;;3.50;;
73779;SDS011;62093;37.614;15.072;2022-10-31T02:53:19;6.18;;;3.67;;
73779;SDS011;62093;37.614;15.072;2022-10-31T02:58:15;5.87;;;3.60;;
73779;SDS011;62093;37.614;15.072;2022-10-31T03:09:24;5.47;;;3.15;;
73779;SDS011;62093;37.614;15.072;2022-10-31T03:17:39;5.65;;;3.38;;
73779;SDS011;62093;37.614;15.072;2022-10-31T03:20:08;6.05;;;3.65;;
73779;SDS011;62093;37.614;15.072;2022-10-31T03:22:36;5.50;;;3.15;;
73779;SDS011;62093;37.614;15.072;2022-10-31T03:25:05;6.03;;;3.30;;
73779;SDS011;62093;37.614;15.072;2022-10-31T03:27:34;6.03;;;3.20;;
73779;SDS011;62093;37.614;15.072;2022-10-31T03:30:03;5.70;;;3.25;;
73779;SDS011;62093;37.614;15.072;2022-10-31T03:32:45;5.68;;;3.55;;
73779;SDS011;62093;37.614;15.072;2022-10-31T03:35:17;5.60;;;3.03;;
73779;SDS011;62093;37.614;15.072;2022-10-31T03:37:47;5.67;;;3.30;;
73779;SDS011;62093;37.614;15.072;2022-10-31T03:40:16;5.60;;;3.20;;
73779;SDS011;62093;37.614;15.072;2022-10-31T03:42:50;5.88;;;3.65;;
73779;SDS011;62093;37.614;15.072;2022-10-31T03:45:22;5.53;;;2.90;;
73779;SDS011;62093;37.614;15.072;2022-10-31T03:47:51;5.50;;;3.13;;
73779;SDS011;62093;37.614;15.072;2022-10-31T03:50:19;5.57;;;3.17;;
73779;SDS011;62093;37.614;15.072;2022-10-31T03:52:53;5.43;;;3.15;;
73779;SDS011;62093;37.614;15.072;2022-10-31T03:55:30;5.93;;;3.45;;
73779;SDS011;62093;37.614;15.072;2022-10-31T04:00:54;5.63;;;3.17;;
73779;SDS011;62093;37.614;15.072;2022-10-31T04:03:27;5.53;;;3.20;;
73779;SDS011;62093;37.614;15.072;2022-10-31T04:05:59;5.25;;;3.45;;
73779;SDS011;62093;37.614;15.072;2022-10-31T04:08:31;5.18;;;3.20;;
73779;SDS011;62093;37.614;15.072;2022-10-31T04:11:02;5.40;;;3.17;;
73779;SDS011;62093;37.614;15.072;2022-10-31T04:13:31;5.57;;;3.25;;
73779;SDS011;62093;37.614;15.072;2022-10-31T04:16:07;5.30;;;3.10;;
73779;SDS011;62093;37.614;15.072;2022-10-31T04:18:34;5.10;;;3.00;;
73779;SDS011;62093;37.614;15.072;2022-10-31T04:21:02;5.75;;;3.33;;
73779;SDS011;62093;37.614;15.072;2022-10-31T04:23:31;5.47;;;3.20;;
73779;SDS011;62093;37.614;15.072;2022-10-31T04:26:01;5.50;;;3.05;;
73779;SDS011;62093;37.614;15.072;2022-10-31T04:28:27;5.13;;;3.13;;
73779;SDS011;62093;37.614;15.072;2022-10-31T04:30:53;5.57;;;3.33;;
73779;SDS011;62093;37.614;15.072;2022-10-31T04:33:21;5.55;;;3.20;;
73779;SDS011;62093;37.614;15.072;2022-10-31T04:35:47;5.47;;;2.60;;
73779;SDS011;62093;37.614;15.072;2022-10-31T04:38:14;5.95;;;3.33;;
73779;SDS011;62093;37.614;15.072;2022-10-31T04:40:42;5.40;;;3.17;;
73779;SDS011;62093;37.614;15.072;2022-10-31T04:43:31;5.68;;;3.15;;
73779;SDS011;62093;37.614;15.072;2022-10-31T04:45:59;5.63;;;3.15;;
73779;SDS011;62093;37.614;15.072;2022-10-31T04:48:25;5.25;;;3.20;;
73779;SDS011;62093;37.614;15.072;2022-10-31T04:50:52;5.25;;;3.13;;
73779;SDS011;62093;37.614;15.072;2022-10-31T04:53:18;5.20;;;3.07;;
73779;SDS011;62093;37.614;15.072;2022-10-31T04:56:16;5.80;;;3.13;;
73779;SDS011;62093;37.614;15.072;2022-10-31T04:58:45;5.38;;;3.05;;
73779;SDS011;62093;37.614;15.072;2022-10-31T05:01:11;5.15;;;3.20;;
73779;SDS011;62093;37.614;15.072;2022-10-31T05:03:39;5.73;;;2.80;;
73779;SDS011;62093;37.614;15.072;2022-10-31T05:06:09;5.43;;;2.95;;
73779;SDS011;62093;37.614;15.072;2022-10-31T05:08:36;5.05;;;2.75;;
73779;SDS011;62093;37.614;15.072;2022-10-31T05:11:05;5.10;;;3.08;;
73779;SDS011;62093;37.614;15.072;2022-10-31T05:13:32;5.53;;;3.08;;
73779;SDS011;62093;37.614;15.072;2022-10-31T05:16:10;5.57;;;2.90;;
73779;SDS011;62093;37.614;15.072;2022-10-31T05:18:55;5.32;;;2.88;;
73779;SDS011;62093;37.614;15.072;2022-10-31T05:21:44;5.28;;;2.95;;
73779;SDS011;62093;37.614;15.072;2022-10-31T05:24:10;5.70;;;3.00;;
73779;SDS011;62093;37.614;15.072;2022-10-31T05:26:39;5.45;;;3.40;;
73779;SDS011;62093;37.614;15.072;2022-10-31T05:29:05;6.53;;;3.10;;
73779;SDS011;62093;37.614;15.072;2022-10-31T05:31:31;5.68;;;3.10;;
73779;SDS011;62093;37.614;15.072;2022-10-31T05:33:59;5.25;;;2.90;;
73779;SDS011;62093;37.614;15.072;2022-10-31T05:36:49;5.45;;;3.08;;
73779;SDS011;62093;37.614;15.072;2022-10-31T05:39:16;5.25;;;2.97;;
73779;SDS011;62093;37.614;15.072;2022-10-31T05:41:46;5.10;;;2.80;;
73779;SDS011;62093;37.614;15.072;2022-10-31T05:44:18;5.03;;;2.70;;
73779;SDS011;62093;37.614;15.072;2022-10-31T05:47:07;5.28;;;3.15;;
73779;SDS011;62093;37.614;15.072;2022-10-31T05:49:51;5.07;;;2.75;;
73779;SDS011;62093;37.614;15.072;2022-10-31T05:52:35;5.57;;;2.80;;
73779;SDS011;62093;37.614;15.072;2022-10-31T05:55:25;5.20;;;3.17;;
73779;SDS011;62093;37.614;15.072;2022-10-31T05:58:02;5.40;;;2.80;;
73779;SDS011;62093;37.614;15.072;2022-10-31T06:00:29;4.90;;;2.70;;
73779;SDS011;62093;37.614;15.072;2022-10-31T06:03:06;5.88;;;3.30;;
73779;SDS011;62093;37.614;15.072;2022-10-31T06:05:41;5.20;;;2.72;;
73779;SDS011;62093;37.614;15.072;2022-10-31T06:08:09;5.10;;;2.80;;
73779;SDS011;62093;37.614;15.072;2022-10-31T06:10:38;5.00;;;2.42;;
73779;SDS011;62093;37.614;15.072;2022-10-31T06:13:04;5.10;;;2.75;;
73779;SDS011;62093;37.614;15.072;2022-10-31T06:15:49;5.30;;;2.90;;
73779;SDS011;62093;37.614;15.072;2022-10-31T06:18:20;5.53;;;2.80;;
73779;SDS011;62093;37.614;15.072;2022-10-31T06:20:48;4.70;;;2.57;;
73779;SDS011;62093;37.614;15.072;2022-10-31T06:23:15;4.95;;;2.80;;
73779;SDS011;62093;37.614;15.072;2022-10-31T06:25:43;5.05;;;2.97;;
73779;SDS011;62093;37.614;15.072;2022-10-31T06:28:14;5.70;;;2.88;;
73779;SDS011;62093;37.614;15.072;2022-10-31T06:30:51;7.28;;;2.90;;
73779;SDS011;62093;37.614;15.072;2022-10-31T06:33:18;5.30;;;2.57;;
73779;SDS011;62093;37.614;15.072;2022-10-31T06:35:54;6.60;;;2.90;;
73779;SDS011;62093;37.614;15.072;2022-10-31T06:38:21;5.15;;;2.90;;
73779;SDS011;62093;37.614;15.072;2022-10-31T06:40:47;4.80;;;2.80;;
73779;SDS011;62093;37.614;15.072;2022-10-31T06:43:22;4.70;;;2.90;;
73779;SDS011;62093;37.614;15.072;2022-10-31T06:45:55;5.60;;;3.10;;
73779;SDS011;62093;37.614;15.072;2022-10-31T06:48:30;5.18;;;3.08;;
73779;SDS011;62093;37.614;15.072;2022-10-31T06:51:23;5.15;;;2.67;;
73779;SDS011;62093;37.614;15.072;2022-10-31T06:53:50;4.75;;;2.63;;
73779;SDS011;62093;37.614;15.072;2022-10-31T06:56:17;5.35;;;2.75;;
73779;SDS011;62093;37.614;15.072;2022-10-31T06:58:47;4.77;;;2.70;;
73779;SDS011;62093;37.614;15.072;2022-10-31T07:01:15;5.07;;;2.72;;
73779;SDS011;62093;37.614;15.072;2022-10-31T07:03:41;5.50;;;3.22;;
73779;SDS011;62093;37.614;15.072;2022-10-31T07:06:07;4.95;;;2.85;;
73779;SDS011;62093;37.614;15.072;2022-10-31T07:08:33;4.65;;;2.65;;
73779;SDS011;62093;37.614;15.072;2022-10-31T07:11:00;5.37;;;2.90;;
73779;SDS011;62093;37.614;15.072;2022-10-31T07:13:28;5.40;;;2.90;;
73779;SDS011;62093;37.614;15.072;2022-10-31T07:16:06;5.25;;;3.08;;
73779;SDS011;62093;37.614;15.072;2022-10-31T07:18:34;5.00;;;2.70;;
73779;SDS011;62093;37.614;15.072;2022-10-31T07:21:01;5.40;;;2.90;;
73779;SDS011;62093;37.614;15.072;2022-10-31T07:23:28;5.03;;;2.90;;
73779;SDS011;62093;37.614;15.072;2022-10-31T07:26:14;4.95;;;2.65;;
73779;SDS011;62093;37.614;15.072;2022-10-31T07:28:45;5.70;;;3.05;;
73779;SDS011;62093;37.614;15.072;2022-10-31T07:31:13;5.43;;;2.65;;
73779;SDS011;62093;37.614;15.072;2022-10-31T07:33:39;4.53;;;2.50;;
73779;SDS011;62093;37.614;15.072;2022-10-31T07:36:41;5.10;;;2.47;;
73779;SDS011;62093;37.614;15.072;2022-10-31T07:39:07;4.75;;;2.90;;
73779;SDS011;62093;37.614;15.072;2022-10-31T07:41:34;5.07;;;2.65;;
73779;SDS011;62093;37.614;15.072;2022-10-31T07:44:01;4.57;;;2.40;;
73779;SDS011;62093;37.614;15.072;2022-10-31T07:46:45;4.88;;;2.50;;
73779;SDS011;62093;37.614;15.072;2022-10-31T07:49:44;4.80;;;2.40;;
73779;SDS011;62093;37.614;15.072;2022-10-31T07:52:28;4.38;;;2.42;;
73779;SDS011;62093;37.614;15.072;2022-10-31T07:55:24;4.68;;;2.60;;
73779;SDS011;62093;37.614;15.072;2022-10-31T07:57:59;5.28;;;2.78;;
73779;SDS011;62093;37.614;15.072;2022-10-31T08:00:28;4.97;;;2.90;;
73779;SDS011;62093;37.614;15.072;2022-10-31T08:02:56;4.50;;;2.50;;
73779;SDS011;62093;37.614;15.072;2022-10-31T08:05:45;4.85;;;2.65;;
73779;SDS011;62093;37.614;15.072;2022-10-31T08:08:41;5.20;;;3.10;;
73779;SDS011;62093;37.614;15.072;2022-10-31T08:11:08;4.40;;;2.17;;
73779;SDS011;62093;37.614;15.072;2022-10-31T08:13:35;4.80;;;2.83;;
73779;SDS011;62093;37.614;15.072;2022-10-31T08:16:01;4.70;;;2.57;;
73779;SDS011;62093;37.614;15.072;2022-10-31T08:18:31;5.15;;;2.90;;
73779;SDS011;62093;37.614;15.072;2022-10-31T08:20:58;4.95;;;2.83;;
73779;SDS011;62093;37.614;15.072;2022-10-31T08:23:24;4.95;;;2.35;;
73779;SDS011;62093;37.614;15.072;2022-10-31T08:25:52;4.65;;;2.75;;
73779;SDS011;62093;37.614;15.072;2022-10-31T08:28:19;4.67;;;2.50;;
73779;SDS011;62093;37.614;15.072;2022-10-31T08:30:49;5.25;;;2.92;;
73779;SDS011;62093;37.614;15.072;2022-10-31T08:33:47;4.97;;;2.50;;
73779;SDS011;62093;37.614;15.072;2022-10-31T08:36:49;4.57;;;2.45;;
73779;SDS011;62093;37.614;15.072;2022-10-31T08:39:23;4.88;;;2.30;;
73779;SDS011;62093;37.614;15.072;2022-10-31T08:41:51;4.33;;;2.30;;
73779;SDS011;62093;37.614;15.072;2022-10-31T08:44:18;5.00;;;2.72;;
73779;SDS011;62093;37.614;15.072;2022-10-31T08:46:45;4.78;;;2.72;;
73779;SDS011;62093;37.614;15.072;2022-10-31T08:49:11;5.20;;;2.90;;
73779;SDS011;62093;37.614;15.072;2022-10-31T08:51:39;4.82;;;2.67;;
73779;SDS011;62093;37.614;15.072;2022-10-31T08:54:06;5.33;;;2.40;;
73779;SDS011;62093;37.614;15.072;2022-10-31T08:56:32;4.53;;;2.60;;
73779;SDS011;62093;37.614;15.072;2022-10-31T08:58:59;4.82;;;2.50;;
73779;SDS011;62093;37.614;15.072;2022-10-31T09:01:45;4.60;;;2.55;;
73779;SDS011;62093;37.614;15.072;2022-10-31T09:04:11;4.68;;;2.40;;
73779;SDS011;62093;37.614;15.072;2022-10-31T09:06:37;5.10;;;2.60;;
73779;SDS011;62093;37.614;15.072;2022-10-31T09:09:03;5.18;;;3.15;;
73779;SDS011;62093;37.614;15.072;2022-10-31T09:11:30;5.18;;;2.88;;
73779;SDS011;62093;37.614;15.072;2022-10-31T09:14:26;4.95;;;2.20;;
73779;SDS011;62093;37.614;15.072;2022-10-31T09:17:15;5.00;;;2.90;;
73779;SDS011;62093;37.614;15.072;2022-10-31T09:20:04;5.13;;;2.27;;
73779;SDS011;62093;37.614;15.072;2022-10-31T09:22:33;4.90;;;2.60;;
73779;SDS011;62093;37.614;15.072;2022-10-31T09:24:59;4.45;;;2.22;;
73779;SDS011;62093;37.614;15.072;2022-10-31T09:27:26;4.40;;;2.60;;
73779;SDS011;62093;37.614;15.072;2022-10-31T09:29:55;5.35;;;2.70;;
73779;SDS011;62093;37.614;15.072;2022-10-31T09:32:21;4.53;;;2.17;;
73779;SDS011;62093;37.614;15.072;2022-10-31T09:34:47;4.80;;;2.78;;
73779;SDS011;62093;37.614;15.072;2022-10-31T09:37:18;4.63;;;2.50;;
73779;SDS011;62093;37.614;15.072;2022-10-31T09:39:44;5.13;;;2.67;;
73779;SDS011;62093;37.614;15.072;2022-10-31T09:47:59;4.43;;;2.40;;
73779;SDS011;62093;37.614;15.072;2022-10-31T09:50:41;4.40;;;2.58;;
73779;SDS011;62093;37.614;15.072;2022-10-31T09:56:16;4.90;;;2.70;;
73779;SDS011;62093;37.614;15.072;2022-10-31T09:58:49;5.43;;;2.53;;
73779;SDS011;62093;37.614;15.072;2022-10-31T10:04:33;5.03;;;3.17;;
73779;SDS011;62093;37.614;15.072;2022-10-31T10:16:55;5.88;;;2.83;;
73779;SDS011;62093;37.614;15.072;2022-10-31T10:25:51;4.47;;;2.38;;
73779;SDS011;62093;37.614;15.072;2022-10-31T10:28:27;4.60;;;2.50;;
73779;SDS011;62093;37.614;15.072;2022-10-31T10:33:55;4.35;;;2.10;;
73779;SDS011;62093;37.614;15.072;2022-10-31T10:36:28;4.90;;;2.50;;
73779;SDS011;62093;37.614;15.072;2022-10-31T10:41:54;4.57;;;2.50;;
73779;SDS011;62093;37.614;15.072;2022-10-31T10:44:45;4.30;;;2.30;;
73779;SDS011;62093;37.614;15.072;2022-10-31T10:47:44;4.90;;;2.47;;
73779;SDS011;62093;37.614;15.072;2022-10-31T10:50:19;4.85;;;2.15;;
73779;SDS011;62093;37.614;15.072;2022-10-31T10:52:50;4.75;;;2.40;;
73779;SDS011;62093;37.614;15.072;2022-10-31T10:58:09;4.53;;;2.30;;
73779;SDS011;62093;37.614;15.072;2022-10-31T11:00:40;4.50;;;2.33;;
73779;SDS011;62093;37.614;15.072;2022-10-31T11:03:08;4.80;;;2.60;;
73779;SDS011;62093;37.614;15.072;2022-10-31T11:05:37;5.22;;;2.35;;
73779;SDS011;62093;37.614;15.072;2022-10-31T11:08:26;4.20;;;2.30;;
73779;SDS011;62093;37.614;15.072;2022-10-31T11:13:45;4.75;;;2.40;;
73779;SDS011;62093;37.614;15.072;2022-10-31T11:16:15;4.35;;;2.13;;
73779;SDS011;62093;37.614;15.072;2022-10-31T11:18:53;4.57;;;2.45;;
73779;SDS011;62093;37.614;15.072;2022-10-31T11:21:30;5.03;;;2.40;;
73779;SDS011;62093;37.614;15.072;2022-10-31T11:26:37;4.72;;;2.38;;
73779;SDS011;62093;37.614;15.072;2022-10-31T11:29:05;4.88;;;2.50;;
73779;SDS011;62093;37.614;15.072;2022-10-31T11:31:37;4.43;;;2.20;;
73779;SDS011;62093;37.614;15.072;2022-10-31T11:34:11;4.10;;;1.93;;
73779;SDS011;62093;37.614;15.072;2022-10-31T11:36:42;4.70;;;2.53;;
73779;SDS011;62093;37.614;15.072;2022-10-31T11:39:15;4.57;;;2.50;;
73779;SDS011;62093;37.614;15.072;2022-10-31T11:41:50;4.38;;;2.38;;
73779;SDS011;62093;37.614;15.072;2022-10-31T11:44:28;4.85;;;2.45;;
73779;SDS011;62093;37.614;15.072;2022-10-31T11:46:59;4.43;;;2.37;;
73779;SDS011;62093;37.614;15.072;2022-10-31T11:52:05;5.10;;;2.63;;
73779;SDS011;62093;37.614;15.072;2022-10-31T11:54:38;4.60;;;2.33;;
73779;SDS011;62093;37.614;15.072;2022-10-31T11:59:57;4.57;;;2.30;;
73779;SDS011;62093;37.614;15.072;2022-10-31T12:02:37;4.30;;;2.25;;
73779;SDS011;62093;37.614;15.072;2022-10-31T12:05:20;4.65;;;2.47;;
73779;SDS011;62093;37.614;15.072;2022-10-31T12:07:49;4.53;;;2.15;;
73779;SDS011;62093;37.614;15.072;2022-10-31T12:10:16;4.60;;;2.20;;
73779;SDS011;62093;37.614;15.072;2022-10-31T12:12:48;4.57;;;2.50;;
73779;SDS011;62093;37.614;15.072;2022-10-31T12:15:35;4.80;;;2.60;;
73779;SDS011;62093;37.614;15.072;2022-10-31T12:20:56;4.53;;;2.53;;
73779;SDS011;62093;37.614;15.072;2022-10-31T12:31:29;4.70;;;2.33;;
73779;SDS011;62093;37.614;15.072;2022-10-31T12:39:44;4.57;;;2.60;;
73779;SDS011;62093;37.614;15.072;2022-10-31T12:42:30;4.32;;;2.70;;
73779;SDS011;62093;37.614;15.072;2022-10-31T12:53:19;4.80;;;2.50;;
73779;SDS011;62093;37.614;15.072;2022-10-31T12:56:13;4.45;;;2.28;;
73779;SDS011;62093;37.614;15.072;2022-10-31T13:07:28;4.57;;;2.47;;
73779;SDS011;62093;37.614;15.072;2022-10-31T13:12:46;4.65;;;2.35;;
73779;SDS011;62093;37.614;15.072;2022-10-31T13:15:23;4.20;;;2.20;;
73779;SDS011;62093;37.614;15.072;2022-10-31T13:18:03;4.78;;;2.58;;
73779;SDS011;62093;37.614;15.072;2022-10-31T13:20:39;4.73;;;2.60;;
73779;SDS011;62093;37.614;15.072;2022-10-31T13:25:53;4.50;;;2.22;;
73779;SDS011;62093;37.614;15.072;2022-10-31T13:30:52;4.60;;;2.60;;
73779;SDS011;62093;37.614;15.072;2022-10-31T13:33:20;4.73;;;2.47;;
73779;SDS011;62093;37.614;15.072;2022-10-31T13:38:40;4.63;;;2.72;;
73779;SDS011;62093;37.614;15.072;2022-10-31T13:44:15;4.60;;;2.40;;
73779;SDS011;62093;37.614;15.072;2022-10-31T13:46:46;4.70;;;2.83;;
73779;SDS011;62093;37.614;15.072;2022-10-31T13:54:37;4.47;;;2.28;;
73779;SDS011;62093;37.614;15.072;2022-10-31T13:57:14;4.43;;;2.13;;
73779;SDS011;62093;37.614;15.072;2022-10-31T13:59:49;4.53;;;2.50;;
73779;SDS011;62093;37.614;15.072;2022-10-31T14:02:21;4.47;;;2.22;;
73779;SDS011;62093;37.614;15.072;2022-10-31T14:04:56;4.57;;;2.30;;
73779;SDS011;62093;37.614;15.072;2022-10-31T14:07:43;4.57;;;2.15;;
73779;SDS011;62093;37.614;15.072;2022-10-31T14:13:06;4.50;;;2.23;;
73779;SDS011;62093;37.614;15.072;2022-10-31T14:15:41;4.13;;;1.98;;
73779;SDS011;62093;37.614;15.072;2022-10-31T14:20:51;4.80;;;2.45;;
73779;SDS011;62093;37.614;15.072;2022-10-31T14:28:53;4.40;;;2.10;;
73779;SDS011;62093;37.614;15.072;2022-10-31T14:31:41;5.30;;;2.78;;
73779;SDS011;62093;37.614;15.072;2022-10-31T14:34:29;5.15;;;2.80;;
73779;SDS011;62093;37.614;15.072;2022-10-31T14:45:45;4.80;;;2.55;;
73779;SDS011;62093;37.614;15.072;2022-10-31T14:51:02;5.00;;;2.83;;
73779;SDS011;62093;37.614;15.072;2022-10-31T14:53:45;4.83;;;2.67;;
73779;SDS011;62093;37.614;15.072;2022-10-31T14:56:17;4.40;;;2.47;;
73779;SDS011;62093;37.614;15.072;2022-10-31T14:59:09;4.60;;;2.40;;
73779;SDS011;62093;37.614;15.072;2022-10-31T15:01:39;4.45;;;2.20;;
73779;SDS011;62093;37.614;15.072;2022-10-31T15:04:23;4.57;;;2.45;;
73779;SDS011;62093;37.614;15.072;2022-10-31T15:07:16;4.60;;;2.37;;
73779;SDS011;62093;37.614;15.072;2022-10-31T15:09:43;4.22;;;2.28;;
73779;SDS011;62093;37.614;15.072;2022-10-31T15:12:22;5.00;;;2.70;;
73779;SDS011;62093;37.614;15.072;2022-10-31T15:14:50;5.10;;;2.70;;
73779;SDS011;62093;37.614;15.072;2022-10-31T15:17:17;5.20;;;2.72;;
73779;SDS011;62093;37.614;15.072;2022-10-31T15:19:43;5.07;;;3.00;;
73779;SDS011;62093;37.614;15.072;2022-10-31T15:22:10;5.50;;;3.10;;
73779;SDS011;62093;37.614;15.072;2022-10-31T15:24:40;6.25;;;3.30;;
73779;SDS011;62093;37.614;15.072;2022-10-31T15:27:15;5.40;;;2.75;;
73779;SDS011;62093;37.614;15.072;2022-10-31T15:29:53;6.18;;;3.10;;
73779;SDS011;62093;37.614;15.072;2022-10-31T15:32:27;6.47;;;3.13;;
73779;SDS011;62093;37.614;15.072;2022-10-31T15:34:55;6.47;;;3.45;;
73779;SDS011;62093;37.614;15.072;2022-10-31T15:37:24;5.72;;;3.20;;
73779;SDS011;62093;37.614;15.072;2022-10-31T15:39:52;5.88;;;3.15;;
73779;SDS011;62093;37.614;15.072;2022-10-31T15:42:25;6.05;;;3.10;;
73779;SDS011;62093;37.614;15.072;2022-10-31T15:47:53;6.18;;;3.50;;
73779;SDS011;62093;37.614;15.072;2022-10-31T15:53:03;9.25;;;3.20;;
73779;SDS011;62093;37.614;15.072;2022-10-31T15:55:33;8.45;;;3.92;;
73779;SDS011;62093;37.614;15.072;2022-10-31T15:58:11;7.43;;;3.73;;
73779;SDS011;62093;37.614;15.072;2022-10-31T16:00:40;8.55;;;3.30;;
73779;SDS011;62093;37.614;15.072;2022-10-31T16:05:52;8.10;;;3.58;;
73779;SDS011;62093;37.614;15.072;2022-10-31T16:10:55;6.27;;;3.77;;
73779;SDS011;62093;37.614;15.072;2022-10-31T16:13:26;8.27;;;3.92;;
73779;SDS011;62093;37.614;15.072;2022-10-31T16:16:00;6.97;;;3.55;;
73779;SDS011;62093;37.614;15.072;2022-10-31T16:18:29;5.90;;;3.92;;
73779;SDS011;62093;37.614;15.072;2022-10-31T16:21:00;7.35;;;3.80;;
73779;SDS011;62093;37.614;15.072;2022-10-31T16:23:27;7.43;;;3.93;;
73779;SDS011;62093;37.614;15.072;2022-10-31T16:25:54;7.07;;;4.03;;
73779;SDS011;62093;37.614;15.072;2022-10-31T16:28:22;7.65;;;4.18;;
73779;SDS011;62093;37.614;15.072;2022-10-31T16:30:52;6.43;;;4.20;;
73779;SDS011;62093;37.614;15.072;2022-10-31T16:38:54;8.85;;;5.07;;
73779;SDS011;62093;37.614;15.072;2022-10-31T16:41:20;8.73;;;4.85;;
73779;SDS011;62093;37.614;15.072;2022-10-31T16:43:47;8.48;;;5.03;;
73779;SDS011;62093;37.614;15.072;2022-10-31T16:46:18;11.93;;;6.07;;
73779;SDS011;62093;37.614;15.072;2022-10-31T16:48:48;9.67;;;5.27;;
73779;SDS011;62093;37.614;15.072;2022-10-31T16:51:15;9.02;;;5.88;;
73779;SDS011;62093;37.614;15.072;2022-10-31T16:53:41;10.50;;;5.88;;
73779;SDS011;62093;37.614;15.072;2022-10-31T16:56:12;9.20;;;6.43;;
73779;SDS011;62093;37.614;15.072;2022-10-31T16:58:41;11.00;;;7.15;;
73779;SDS011;62093;37.614;15.072;2022-10-31T17:01:08;11.03;;;7.17;;
73779;SDS011;62093;37.614;15.072;2022-10-31T17:03:36;12.32;;;8.18;;
73779;SDS011;62093;37.614;15.072;2022-10-31T17:06:02;12.55;;;7.55;;
73779;SDS011;62093;37.614;15.072;2022-10-31T17:08:28;11.48;;;7.78;;
73779;SDS011;62093;37.614;15.072;2022-10-31T17:10:55;12.13;;;6.90;;
73779;SDS011;62093;37.614;15.072;2022-10-31T17:13:27;13.45;;;8.15;;
73779;SDS011;62093;37.614;15.072;2022-10-31T17:15:58;15.07;;;7.30;;
73779;SDS011;62093;37.614;15.072;2022-10-31T17:18:26;10.38;;;6.55;;
73779;SDS011;62093;37.614;15.072;2022-10-31T17:20:59;18.27;;;7.40;;
73779;SDS011;62093;37.614;15.072;2022-10-31T17:23:27;10.47;;;7.43;;
73779;SDS011;62093;37.614;15.072;2022-10-31T17:25:54;11.82;;;6.65;;
73779;SDS011;62093;37.614;15.072;2022-10-31T17:28:21;11.98;;;6.43;;
73779;SDS011;62093;37.614;15.072;2022-10-31T17:30:47;11.95;;;6.50;;
73779;SDS011;62093;37.614;15.072;2022-10-31T17:33:13;11.10;;;6.40;;
73779;SDS011;62093;37.614;15.072;2022-10-31T17:35:41;12.07;;;6.10;;
73779;SDS011;62093;37.614;15.072;2022-10-31T17:38:10;10.95;;;6.22;;
73779;SDS011;62093;37.614;15.072;2022-10-31T17:40:37;10.70;;;5.90;;
73779;SDS011;62093;37.614;15.072;2022-10-31T17:43:04;9.07;;;5.82;;
73779;SDS011;62093;37.614;15.072;2022-10-31T17:45:30;10.55;;;6.53;;
73779;SDS011;62093;37.614;15.072;2022-10-31T17:47:56;10.87;;;6.13;;
73779;SDS011;62093;37.614;15.072;2022-10-31T17:50:23;9.45;;;5.50;;
73779;SDS011;62093;37.614;15.072;2022-10-31T17:52:51;9.45;;;5.97;;